Terminal Aerodrome Forecast
Issued by NWS

Home | Current Version | Previous Version | Text Only | Print | Product List | Glossary On
Versions: 1 2 3 4 5 6 7 8 9 10 11 12 13 14 15 16 17 18 19
000
FTAK31 PAJN 222300
TAFASI
TAF
PASI 222321Z 2300/2324 13006KT P6SM -SHRA VCTS SCT015 BKN040CB
      OVC070
      TEMPO 2300/2302 5SM +TSRA BKN015 BKN025CB OVC050
     FM230400 13005KT P6SM VCSH BKN050 OVC070
     FM230900 VRB05KT P6SM OVC080
     FM231500 VRB02KT P6SM BKN100
     FM232000 34007KT P6SM SCT100=

USA.gov is the U.S. government's official web portal to all federal, state and local government web resources and services.